sensor_id;sensor_type;location;lat;lon;timestamp;P1;durP1;ratioP1;P2;durP2;ratioP2
44434;SDS011;30138;20.964;105.830;2023-05-21T00:03:35;24.05;;;18.30;;
44434;SDS011;30138;20.964;105.830;2023-05-21T00:08:42;25.77;;;18.58;;
44434;SDS011;30138;20.964;105.830;2023-05-21T00:13:50;27.65;;;19.67;;
44434;SDS011;30138;20.964;105.830;2023-05-21T00:18:58;22.92;;;17.88;;
44434;SDS011;30138;20.964;105.830;2023-05-21T00:24:05;24.90;;;18.65;;
44434;SDS011;30138;20.964;105.830;2023-05-21T00:29:12;24.75;;;19.75;;
44434;SDS011;30138;20.964;105.830;2023-05-21T00:34:21;25.85;;;19.38;;
44434;SDS011;30138;20.964;105.830;2023-05-21T00:39:28;27.38;;;17.77;;
44434;SDS011;30138;20.964;105.830;2023-05-21T00:44:35;25.48;;;18.88;;
44434;SDS011;30138;20.964;105.830;2023-05-21T00:49:43;25.55;;;19.73;;
44434;SDS011;30138;20.964;105.830;2023-05-21T00:54:52;25.92;;;18.77;;
44434;SDS011;30138;20.964;105.830;2023-05-21T00:59:58;23.00;;;17.88;;
44434;SDS011;30138;20.964;105.830;2023-05-21T01:05:09;25.50;;;18.83;;
44434;SDS011;30138;20.964;105.830;2023-05-21T01:10:15;27.05;;;19.48;;
44434;SDS011;30138;20.964;105.830;2023-05-21T01:15:22;25.88;;;18.30;;
44434;SDS011;30138;20.964;105.830;2023-05-21T01:20:31;24.80;;;18.98;;
44434;SDS011;30138;20.964;105.830;2023-05-21T01:25:40;27.85;;;20.70;;
44434;SDS011;30138;20.964;105.830;2023-05-21T01:30:46;25.50;;;18.92;;
44434;SDS011;30138;20.964;105.830;2023-05-21T01:35:55;28.35;;;19.23;;
44434;SDS011;30138;20.964;105.830;2023-05-21T01:41:09;24.90;;;19.90;;
44434;SDS011;30138;20.964;105.830;2023-05-21T01:46:18;24.60;;;19.88;;
44434;SDS011;30138;20.964;105.830;2023-05-21T01:51:27;25.08;;;18.77;;
44434;SDS011;30138;20.964;105.830;2023-05-21T01:56:36;25.92;;;20.30;;
44434;SDS011;30138;20.964;105.830;2023-05-21T02:01:42;26.42;;;19.27;;
44434;SDS011;30138;20.964;105.830;2023-05-21T02:06:51;25.45;;;19.02;;
44434;SDS011;30138;20.964;105.830;2023-05-21T02:11:59;25.33;;;20.40;;
44434;SDS011;30138;20.964;105.830;2023-05-21T02:17:05;27.60;;;21.10;;
44434;SDS011;30138;20.964;105.830;2023-05-21T02:22:12;26.67;;;20.10;;
44434;SDS011;30138;20.964;105.830;2023-05-21T02:27:20;25.90;;;19.48;;
44434;SDS011;30138;20.964;105.830;2023-05-21T02:32:33;28.35;;;21.27;;
44434;SDS011;30138;20.964;105.830;2023-05-21T02:37:40;29.10;;;21.92;;
44434;SDS011;30138;20.964;105.830;2023-05-21T02:42:48;28.52;;;20.98;;
44434;SDS011;30138;20.964;105.830;2023-05-21T02:47:56;30.17;;;21.38;;
44434;SDS011;30138;20.964;105.830;2023-05-21T02:53:09;27.67;;;21.45;;
44434;SDS011;30138;20.964;105.830;2023-05-21T02:58:17;26.85;;;20.25;;
44434;SDS011;30138;20.964;105.830;2023-05-21T03:03:24;29.92;;;21.98;;
44434;SDS011;30138;20.964;105.830;2023-05-21T03:08:31;30.27;;;21.63;;
44434;SDS011;30138;20.964;105.830;2023-05-21T03:13:42;28.77;;;20.42;;
44434;SDS011;30138;20.964;105.830;2023-05-21T03:18:49;28.08;;;21.10;;
44434;SDS011;30138;20.964;105.830;2023-05-21T03:23:55;31.83;;;23.73;;
44434;SDS011;30138;20.964;105.830;2023-05-21T03:29:05;28.33;;;21.90;;
44434;SDS011;30138;20.964;105.830;2023-05-21T03:34:13;29.33;;;22.50;;
44434;SDS011;30138;20.964;105.830;2023-05-21T03:39:20;29.63;;;23.30;;
44434;SDS011;30138;20.964;105.830;2023-05-21T03:44:28;32.67;;;23.45;;
44434;SDS011;30138;20.964;105.830;2023-05-21T03:49:49;30.25;;;22.60;;
44434;SDS011;30138;20.964;105.830;2023-05-21T03:54:57;31.88;;;24.85;;
44434;SDS011;30138;20.964;105.830;2023-05-21T04:00:07;34.88;;;26.17;;
44434;SDS011;30138;20.964;105.830;2023-05-21T04:05:17;33.22;;;25.95;;
44434;SDS011;30138;20.964;105.830;2023-05-21T04:10:24;31.92;;;23.75;;
44434;SDS011;30138;20.964;105.830;2023-05-21T04:15:32;34.75;;;26.63;;
44434;SDS011;30138;20.964;105.830;2023-05-21T04:20:39;34.83;;;27.00;;
44434;SDS011;30138;20.964;105.830;2023-05-21T04:25:46;33.58;;;25.48;;
44434;SDS011;30138;20.964;105.830;2023-05-21T04:30:54;35.97;;;25.85;;
44434;SDS011;30138;20.964;105.830;2023-05-21T04:36:01;35.35;;;26.65;;
44434;SDS011;30138;20.964;105.830;2023-05-21T04:41:10;41.20;;;30.08;;
44434;SDS011;30138;20.964;105.830;2023-05-21T04:46:21;41.72;;;29.85;;
44434;SDS011;30138;20.964;105.830;2023-05-21T04:51:28;40.78;;;30.25;;
44434;SDS011;30138;20.964;105.830;2023-05-21T04:56:36;43.55;;;31.58;;
44434;SDS011;30138;20.964;105.830;2023-05-21T05:01:45;49.17;;;31.58;;
44434;SDS011;30138;20.964;105.830;2023-05-21T05:06:51;47.70;;;32.17;;
44434;SDS011;30138;20.964;105.830;2023-05-21T05:11:58;51.42;;;34.85;;
44434;SDS011;30138;20.964;105.830;2023-05-21T05:17:06;45.78;;;33.95;;
44434;SDS011;30138;20.964;105.830;2023-05-21T05:22:18;43.97;;;33.35;;
44434;SDS011;30138;20.964;105.830;2023-05-21T05:27:25;48.63;;;34.20;;
44434;SDS011;30138;20.964;105.830;2023-05-21T05:32:34;52.30;;;35.65;;
44434;SDS011;30138;20.964;105.830;2023-05-21T05:37:41;52.20;;;37.47;;
44434;SDS011;30138;20.964;105.830;2023-05-21T05:42:49;47.42;;;35.58;;
44434;SDS011;30138;20.964;105.830;2023-05-21T05:47:58;47.80;;;34.75;;
44434;SDS011;30138;20.964;105.830;2023-05-21T05:53:05;48.88;;;34.08;;
44434;SDS011;30138;20.964;105.830;2023-05-21T05:58:13;47.38;;;35.33;;
44434;SDS011;30138;20.964;105.830;2023-05-21T06:03:45;47.25;;;35.65;;
44434;SDS011;30138;20.964;105.830;2023-05-21T06:08:53;49.25;;;36.70;;
44434;SDS011;30138;20.964;105.830;2023-05-21T06:13:59;52.08;;;34.22;;
44434;SDS011;30138;20.964;105.830;2023-05-21T06:19:08;49.53;;;36.78;;
44434;SDS011;30138;20.964;105.830;2023-05-21T06:24:15;49.03;;;34.92;;
44434;SDS011;30138;20.964;105.830;2023-05-21T06:29:21;47.65;;;33.20;;
44434;SDS011;30138;20.964;105.830;2023-05-21T06:34:29;45.10;;;32.92;;
44434;SDS011;30138;20.964;105.830;2023-05-21T06:39:37;49.22;;;33.42;;
44434;SDS011;30138;20.964;105.830;2023-05-21T06:44:43;46.15;;;33.13;;
44434;SDS011;30138;20.964;105.830;2023-05-21T06:50:05;45.65;;;33.38;;
44434;SDS011;30138;20.964;105.830;2023-05-21T06:55:12;44.72;;;30.80;;
44434;SDS011;30138;20.964;105.830;2023-05-21T07:00:37;46.05;;;32.60;;
44434;SDS011;30138;20.964;105.830;2023-05-21T07:05:46;44.85;;;32.30;;
44434;SDS011;30138;20.964;105.830;2023-05-21T07:10:53;42.40;;;31.45;;
44434;SDS011;30138;20.964;105.830;2023-05-21T07:16:00;39.88;;;30.95;;
44434;SDS011;30138;20.964;105.830;2023-05-21T07:27:12;42.88;;;31.65;;
44434;SDS011;30138;20.964;105.830;2023-05-21T07:32:18;42.22;;;31.13;;
44434;SDS011;30138;20.964;105.830;2023-05-21T07:37:28;42.47;;;30.95;;
44434;SDS011;30138;20.964;105.830;2023-05-21T07:42:39;43.33;;;30.55;;
44434;SDS011;30138;20.964;105.830;2023-05-21T07:47:47;38.07;;;29.17;;
44434;SDS011;30138;20.964;105.830;2023-05-21T07:52:54;41.28;;;29.77;;
44434;SDS011;30138;20.964;105.830;2023-05-21T07:58:07;37.45;;;28.70;;
44434;SDS011;30138;20.964;105.830;2023-05-21T08:03:14;37.33;;;27.50;;
44434;SDS011;30138;20.964;105.830;2023-05-21T08:08:21;37.63;;;28.50;;
44434;SDS011;30138;20.964;105.830;2023-05-21T08:13:33;39.05;;;28.27;;
44434;SDS011;30138;20.964;105.830;2023-05-21T08:18:42;35.60;;;27.23;;
44434;SDS011;30138;20.964;105.830;2023-05-21T08:23:48;34.22;;;26.90;;
44434;SDS011;30138;20.964;105.830;2023-05-21T08:29:01;37.72;;;26.65;;
44434;SDS011;30138;20.964;105.830;2023-05-21T08:39:23;32.78;;;25.38;;
44434;SDS011;30138;20.964;105.830;2023-05-21T08:44:31;36.22;;;26.58;;
44434;SDS011;30138;20.964;105.830;2023-05-21T08:49:39;37.28;;;28.25;;
44434;SDS011;30138;20.964;105.830;2023-05-21T08:54:48;34.30;;;26.20;;
44434;SDS011;30138;20.964;105.830;2023-05-21T08:59:57;35.03;;;27.48;;
44434;SDS011;30138;20.964;105.830;2023-05-21T09:05:05;34.28;;;26.60;;
44434;SDS011;30138;20.964;105.830;2023-05-21T09:10:15;32.78;;;25.27;;
44434;SDS011;30138;20.964;105.830;2023-05-21T09:15:29;34.20;;;24.85;;
44434;SDS011;30138;20.964;105.830;2023-05-21T09:20:36;32.15;;;25.70;;
44434;SDS011;30138;20.964;105.830;2023-05-21T09:25:53;31.27;;;24.67;;
44434;SDS011;30138;20.964;105.830;2023-05-21T09:31:07;33.85;;;24.35;;
44434;SDS011;30138;20.964;105.830;2023-05-21T09:36:14;32.92;;;24.30;;
44434;SDS011;30138;20.964;105.830;2023-05-21T09:41:27;32.45;;;24.52;;
44434;SDS011;30138;20.964;105.830;2023-05-21T09:46:40;30.88;;;23.95;;
44434;SDS011;30138;20.964;105.830;2023-05-21T09:51:46;35.78;;;24.67;;
44434;SDS011;30138;20.964;105.830;2023-05-21T09:56:52;40.60;;;30.30;;
44434;SDS011;30138;20.964;105.830;2023-05-21T10:02:00;43.10;;;29.02;;
44434;SDS011;30138;20.964;105.830;2023-05-21T10:07:07;41.08;;;27.95;;
44434;SDS011;30138;20.964;105.830;2023-05-21T10:12:16;38.35;;;27.95;;
44434;SDS011;30138;20.964;105.830;2023-05-21T10:17:25;38.17;;;27.60;;
44434;SDS011;30138;20.964;105.830;2023-05-21T10:22:32;36.80;;;26.63;;
44434;SDS011;30138;20.964;105.830;2023-05-21T10:27:40;39.22;;;28.38;;
44434;SDS011;30138;20.964;105.830;2023-05-21T10:32:48;43.85;;;29.23;;
44434;SDS011;30138;20.964;105.830;2023-05-21T10:37:55;36.58;;;27.20;;
44434;SDS011;30138;20.964;105.830;2023-05-21T10:43:20;38.50;;;27.30;;
44434;SDS011;30138;20.964;105.830;2023-05-21T10:54:47;44.00;;;30.00;;
44434;SDS011;30138;20.964;105.830;2023-05-21T11:00:12;42.83;;;29.95;;
44434;SDS011;30138;20.964;105.830;2023-05-21T11:10:58;39.97;;;29.17;;
44434;SDS011;30138;20.964;105.830;2023-05-21T11:16:04;48.45;;;30.83;;
44434;SDS011;30138;20.964;105.830;2023-05-21T11:21:20;48.05;;;31.17;;
44434;SDS011;30138;20.964;105.830;2023-05-21T11:26:29;42.00;;;30.13;;
44434;SDS011;30138;20.964;105.830;2023-05-21T11:32:09;40.25;;;29.10;;
44434;SDS011;30138;20.964;105.830;2023-05-21T11:37:32;42.30;;;29.33;;
44434;SDS011;30138;20.964;105.830;2023-05-21T11:42:41;42.23;;;30.47;;
44434;SDS011;30138;20.964;105.830;2023-05-21T11:53:00;40.03;;;28.05;;
44434;SDS011;30138;20.964;105.830;2023-05-21T11:58:08;37.63;;;27.77;;
44434;SDS011;30138;20.964;105.830;2023-05-21T12:03:19;38.97;;;28.40;;
44434;SDS011;30138;20.964;105.830;2023-05-21T12:08:32;37.63;;;27.35;;
44434;SDS011;30138;20.964;105.830;2023-05-21T12:13:42;37.22;;;26.25;;
44434;SDS011;30138;20.964;105.830;2023-05-21T12:18:51;38.97;;;26.55;;
44434;SDS011;30138;20.964;105.830;2023-05-21T12:24:00;37.95;;;25.23;;
44434;SDS011;30138;20.964;105.830;2023-05-21T12:29:09;36.80;;;26.63;;
44434;SDS011;30138;20.964;105.830;2023-05-21T12:34:37;35.65;;;25.50;;
44434;SDS011;30138;20.964;105.830;2023-05-21T12:39:47;33.65;;;25.45;;
44434;SDS011;30138;20.964;105.830;2023-05-21T12:44:54;34.05;;;24.90;;
44434;SDS011;30138;20.964;105.830;2023-05-21T12:50:01;35.75;;;25.92;;
44434;SDS011;30138;20.964;105.830;2023-05-21T12:55:14;34.55;;;24.45;;
44434;SDS011;30138;20.964;105.830;2023-05-21T13:00:22;32.53;;;23.65;;
44434;SDS011;30138;20.964;105.830;2023-05-21T13:05:29;33.65;;;24.52;;
44434;SDS011;30138;20.964;105.830;2023-05-21T13:10:37;35.10;;;23.73;;
44434;SDS011;30138;20.964;105.830;2023-05-21T13:15:44;31.55;;;23.42;;
44434;SDS011;30138;20.964;105.830;2023-05-21T13:20:50;30.65;;;22.45;;
44434;SDS011;30138;20.964;105.830;2023-05-21T13:25:59;30.58;;;22.38;;
44434;SDS011;30138;20.964;105.830;2023-05-21T13:31:05;29.33;;;23.08;;
44434;SDS011;30138;20.964;105.830;2023-05-21T13:36:13;43.30;;;28.08;;
44434;SDS011;30138;20.964;105.830;2023-05-21T13:41:21;48.10;;;33.25;;
44434;SDS011;30138;20.964;105.830;2023-05-21T13:46:28;55.25;;;36.13;;
44434;SDS011;30138;20.964;105.830;2023-05-21T13:51:39;59.17;;;39.40;;
44434;SDS011;30138;20.964;105.830;2023-05-21T13:56:48;62.28;;;39.53;;
44434;SDS011;30138;20.964;105.830;2023-05-21T14:01:55;61.53;;;40.20;;
44434;SDS011;30138;20.964;105.830;2023-05-21T14:07:02;64.30;;;39.90;;
44434;SDS011;30138;20.964;105.830;2023-05-21T14:12:13;58.33;;;38.38;;
44434;SDS011;30138;20.964;105.830;2023-05-21T14:17:21;53.05;;;35.95;;
44434;SDS011;30138;20.964;105.830;2023-05-21T14:22:30;62.53;;;38.80;;
44434;SDS011;30138;20.964;105.830;2023-05-21T14:27:38;61.72;;;38.83;;
44434;SDS011;30138;20.964;105.830;2023-05-21T14:32:45;55.20;;;35.45;;
44434;SDS011;30138;20.964;105.830;2023-05-21T14:37:53;57.65;;;36.50;;
44434;SDS011;30138;20.964;105.830;2023-05-21T14:43:03;59.42;;;35.88;;
44434;SDS011;30138;20.964;105.830;2023-05-21T14:48:10;61.03;;;37.58;;
44434;SDS011;30138;20.964;105.830;2023-05-21T14:53:17;58.15;;;34.83;;
44434;SDS011;30138;20.964;105.830;2023-05-21T14:58:25;57.78;;;34.05;;
44434;SDS011;30138;20.964;105.830;2023-05-21T15:03:32;50.35;;;33.08;;
44434;SDS011;30138;20.964;105.830;2023-05-21T15:08:40;52.97;;;32.65;;
44434;SDS011;30138;20.964;105.830;2023-05-21T15:13:48;48.60;;;30.10;;
44434;SDS011;30138;20.964;105.830;2023-05-21T15:18:55;50.40;;;30.00;;
44434;SDS011;30138;20.964;105.830;2023-05-21T15:24:05;55.88;;;29.55;;
44434;SDS011;30138;20.964;105.830;2023-05-21T15:29:15;47.85;;;29.33;;
44434;SDS011;30138;20.964;105.830;2023-05-21T15:34:24;43.90;;;29.02;;
44434;SDS011;30138;20.964;105.830;2023-05-21T15:39:31;41.25;;;28.13;;
44434;SDS011;30138;20.964;105.830;2023-05-21T15:44:40;37.35;;;26.98;;
44434;SDS011;30138;20.964;105.830;2023-05-21T15:49:47;39.40;;;26.45;;
44434;SDS011;30138;20.964;105.830;2023-05-21T15:54:54;41.13;;;25.75;;
44434;SDS011;30138;20.964;105.830;2023-05-21T16:00:04;42.20;;;26.10;;
44434;SDS011;30138;20.964;105.830;2023-05-21T16:10:20;45.75;;;29.73;;
44434;SDS011;30138;20.964;105.830;2023-05-21T16:15:30;44.78;;;28.08;;
44434;SDS011;30138;20.964;105.830;2023-05-21T16:20:37;43.15;;;27.35;;
44434;SDS011;30138;20.964;105.830;2023-05-21T16:25:44;43.22;;;27.00;;
44434;SDS011;30138;20.964;105.830;2023-05-21T16:30:52;41.50;;;27.02;;
44434;SDS011;30138;20.964;105.830;2023-05-21T16:35:59;50.65;;;25.48;;
44434;SDS011;30138;20.964;105.830;2023-05-21T16:41:07;39.13;;;23.67;;
44434;SDS011;30138;20.964;105.830;2023-05-21T16:46:16;36.17;;;23.08;;
44434;SDS011;30138;20.964;105.830;2023-05-21T16:51:23;33.47;;;22.83;;
44434;SDS011;30138;20.964;105.830;2023-05-21T16:56:30;34.92;;;21.00;;
44434;SDS011;30138;20.964;105.830;2023-05-21T17:01:38;29.80;;;20.58;;
44434;SDS011;30138;20.964;105.830;2023-05-21T17:06:49;31.15;;;21.35;;
44434;SDS011;30138;20.964;105.830;2023-05-21T17:11:56;27.25;;;20.38;;
44434;SDS011;30138;20.964;105.830;2023-05-21T17:17:04;27.98;;;19.88;;
44434;SDS011;30138;20.964;105.830;2023-05-21T17:22:10;25.88;;;18.85;;
44434;SDS011;30138;20.964;105.830;2023-05-21T17:27:17;25.35;;;18.10;;
44434;SDS011;30138;20.964;105.830;2023-05-21T17:32:26;23.42;;;17.13;;
44434;SDS011;30138;20.964;105.830;2023-05-21T17:37:34;20.50;;;16.43;;
44434;SDS011;30138;20.964;105.830;2023-05-21T17:42:41;21.98;;;16.45;;
44434;SDS011;30138;20.964;105.830;2023-05-21T17:47:50;19.23;;;14.85;;
44434;SDS011;30138;20.964;105.830;2023-05-21T17:52:58;19.33;;;15.25;;
44434;SDS011;30138;20.964;105.830;2023-05-21T17:58:05;20.27;;;15.13;;
44434;SDS011;30138;20.964;105.830;2023-05-21T18:03:13;18.05;;;14.85;;
44434;SDS011;30138;20.964;105.830;2023-05-21T18:08:20;20.58;;;15.27;;
44434;SDS011;30138;20.964;105.830;2023-05-21T18:13:27;17.73;;;14.20;;
44434;SDS011;30138;20.964;105.830;2023-05-21T18:18:36;18.85;;;13.82;;
44434;SDS011;30138;20.964;105.830;2023-05-21T18:23:42;17.70;;;14.18;;
44434;SDS011;30138;20.964;105.830;2023-05-21T18:28:49;18.38;;;14.38;;
44434;SDS011;30138;20.964;105.830;2023-05-21T18:33:57;18.38;;;13.13;;
44434;SDS011;30138;20.964;105.830;2023-05-21T18:39:04;15.70;;;12.52;;
44434;SDS011;30138;20.964;105.830;2023-05-21T18:44:11;15.27;;;13.48;;
44434;SDS011;30138;20.964;105.830;2023-05-21T18:49:20;15.70;;;13.00;;
44434;SDS011;30138;20.964;105.830;2023-05-21T18:54:26;18.63;;;13.15;;
44434;SDS011;30138;20.964;105.830;2023-05-21T18:59:32;16.88;;;12.77;;
44434;SDS011;30138;20.964;105.830;2023-05-21T19:04:40;15.45;;;12.68;;
44434;SDS011;30138;20.964;105.830;2023-05-21T19:09:47;15.77;;;12.32;;
44434;SDS011;30138;20.964;105.830;2023-05-21T19:14:54;14.77;;;11.90;;
44434;SDS011;30138;20.964;105.830;2023-05-21T19:20:02;14.32;;;12.00;;
44434;SDS011;30138;20.964;105.830;2023-05-21T19:25:10;14.25;;;11.95;;
44434;SDS011;30138;20.964;105.830;2023-05-21T19:30:17;13.68;;;11.35;;
44434;SDS011;30138;20.964;105.830;2023-05-21T19:35:25;15.75;;;11.68;;
44434;SDS011;30138;20.964;105.830;2023-05-21T19:40:32;14.25;;;11.23;;
44434;SDS011;30138;20.964;105.830;2023-05-21T19:45:40;13.77;;;11.52;;
44434;SDS011;30138;20.964;105.830;2023-05-21T19:50:48;13.80;;;10.63;;
44434;SDS011;30138;20.964;105.830;2023-05-21T19:55:54;20.35;;;11.45;;
44434;SDS011;30138;20.964;105.830;2023-05-21T20:01:00;13.45;;;10.88;;
44434;SDS011;30138;20.964;105.830;2023-05-21T20:06:09;13.40;;;11.38;;
44434;SDS011;30138;20.964;105.830;2023-05-21T20:11:19;14.80;;;11.00;;
44434;SDS011;30138;20.964;105.830;2023-05-21T20:16:25;14.70;;;10.85;;
44434;SDS011;30138;20.964;105.830;2023-05-21T20:21:33;14.52;;;11.52;;
44434;SDS011;30138;20.964;105.830;2023-05-21T20:26:39;12.73;;;10.80;;
44434;SDS011;30138;20.964;105.830;2023-05-21T20:31:46;13.65;;;10.82;;
44434;SDS011;30138;20.964;105.830;2023-05-21T20:36:54;13.13;;;11.48;;
44434;SDS011;30138;20.964;105.830;2023-05-21T20:42:02;14.18;;;10.63;;
44434;SDS011;30138;20.964;105.830;2023-05-21T20:47:11;13.57;;;10.50;;
44434;SDS011;30138;20.964;105.830;2023-05-21T20:52:19;12.82;;;9.90;;
44434;SDS011;30138;20.964;105.830;2023-05-21T20:57:25;11.85;;;9.85;;
44434;SDS011;30138;20.964;105.830;2023-05-21T21:02:31;11.13;;;9.93;;
44434;SDS011;30138;20.964;105.830;2023-05-21T21:07:40;12.38;;;10.15;;
44434;SDS011;30138;20.964;105.830;2023-05-21T21:12:47;11.10;;;9.30;;
44434;SDS011;30138;20.964;105.830;2023-05-21T21:17:54;12.15;;;9.57;;
44434;SDS011;30138;20.964;105.830;2023-05-21T21:23:05;13.82;;;9.77;;
44434;SDS011;30138;20.964;105.830;2023-05-21T21:28:11;10.77;;;9.23;;
44434;SDS011;30138;20.964;105.830;2023-05-21T21:33:18;11.15;;;9.90;;
44434;SDS011;30138;20.964;105.830;2023-05-21T21:38:28;13.50;;;9.40;;
44434;SDS011;30138;20.964;105.830;2023-05-21T21:43:35;12.32;;;9.70;;
44434;SDS011;30138;20.964;105.830;2023-05-21T21:48:42;9.98;;;8.70;;
44434;SDS011;30138;20.964;105.830;2023-05-21T21:53:51;11.10;;;9.25;;
44434;SDS011;30138;20.964;105.830;2023-05-21T21:58:58;10.00;;;8.55;;
44434;SDS011;30138;20.964;105.830;2023-05-21T22:04:05;11.27;;;9.10;;
44434;SDS011;30138;20.964;105.830;2023-05-21T22:09:14;9.82;;;8.80;;
44434;SDS011;30138;20.964;105.830;2023-05-21T22:19:28;9.85;;;8.57;;
44434;SDS011;30138;20.964;105.830;2023-05-21T22:24:37;9.85;;;8.05;;
44434;SDS011;30138;20.964;105.830;2023-05-21T22:29:43;9.48;;;8.45;;
44434;SDS011;30138;20.964;105.830;2023-05-21T22:34:50;9.57;;;8.35;;
44434;SDS011;30138;20.964;105.830;2023-05-21T22:39:59;10.55;;;8.57;;
44434;SDS011;30138;20.964;105.830;2023-05-21T22:45:07;8.93;;;8.02;;
44434;SDS011;30138;20.964;105.830;2023-05-21T22:50:14;10.35;;;8.82;;
44434;SDS011;30138;20.964;105.830;2023-05-21T22:55:22;9.02;;;8.10;;
44434;SDS011;30138;20.964;105.830;2023-05-21T23:00:29;10.68;;;8.68;;
44434;SDS011;30138;20.964;105.830;2023-05-21T23:05:36;11.43;;;8.18;;
44434;SDS011;30138;20.964;105.830;2023-05-21T23:10:44;9.23;;;8.25;;
44434;SDS011;30138;20.964;105.830;2023-05-21T23:15:50;9.38;;;8.38;;
44434;SDS011;30138;20.964;105.830;2023-05-21T23:20:59;9.63;;;8.20;;
44434;SDS011;30138;20.964;105.830;2023-05-21T23:26:07;10.55;;;7.43;;
44434;SDS011;30138;20.964;105.830;2023-05-21T23:31:14;7.80;;;7.00;;
44434;SDS011;30138;20.964;105.830;2023-05-21T23:36:20;9.93;;;7.53;;
44434;SDS011;30138;20.964;105.830;2023-05-21T23:41:28;9.10;;;8.20;;
44434;SDS011;30138;20.964;105.830;2023-05-21T23:46:34;8.80;;;7.60;;
44434;SDS011;30138;20.964;105.830;2023-05-21T23:51:41;8.90;;;7.25;;
44434;SDS011;30138;20.964;105.830;2023-05-21T23:56:53;8.73;;;7.68;;
